Time;durP1;ratioP1;P1;durP2;ratioP2;P2;SDS_P1;SDS_P2;PMS_P1;PMS_P2;Temp;Humidity;BMP_temperature;BMP_pressure;BME280_temperature;BME280_humidity;BME280_pressure;Samples;Min_cycle;Max_cycle;Signal;HPM_P1;HPM_P2
2021/01/14 00:00:32;;;;;;;5.70;1.55;;;1.40;98.00;;;;;;5053392;28;20392;-71
2021/01/14 00:02:57;;;;;;;2.90;1.00;;;1.40;98.50;;;;;;5053494;28;20025;-71
2021/01/14 00:05:23;;;;;;;7.22;1.58;;;1.40;99.10;;;;;;5053573;28;20434;-71
2021/01/14 00:07:49;;;;;;;4.95;1.23;;;1.40;98.70;;;;;;5053010;28;20051;-72
2021/01/14 00:10:15;;;;;;;3.25;1.30;;;1.30;99.20;;;;;;5052104;28;20025;-72
2021/01/14 00:12:41;;;;;;;6.25;1.10;;;1.40;97.30;;;;;;5053323;28;20408;-73
2021/01/14 00:15:08;;;;;;;8.68;1.50;;;1.30;97.90;;;;;;5053135;28;20025;-71
2021/01/14 00:17:34;;;;;;;9.07;1.77;;;1.20;99.50;;;;;;5052616;28;20029;-71
2021/01/14 00:20:00;;;;;;;3.35;0.90;;;1.20;98.60;;;;;;5050663;28;20391;-72
2021/01/14 00:22:26;;;;;;;6.55;1.70;;;1.30;97.90;;;;;;5053005;28;20025;-72
2021/01/14 00:24:52;;;;;;;3.65;1.17;;;1.50;97.10;;;;;;5053051;28;20579;-71
2021/01/14 00:27:17;;;;;;;6.03;1.40;;;1.40;97.90;;;;;;5051139;28;20048;-71
2021/01/14 00:29:43;;;;;;;3.42;0.80;;;1.40;97.50;;;;;;5052960;28;20112;-72
2021/01/14 00:32:09;;;;;;;5.03;1.27;;;1.40;97.40;;;;;;5052936;28;20068;-71
2021/01/14 00:34:35;;;;;;;3.85;0.90;;;1.40;97.20;;;;;;5051634;28;20086;-71
2021/01/14 00:39:44;;;;;;;1.73;0.60;;;1.30;97.70;;;;;;5052790;28;20055;-71
2021/01/14 00:42:17;;;;;;;5.45;1.00;;;1.40;96.30;;;;;;5052699;28;20064;-72
2021/01/14 00:44:42;;;;;;;9.60;2.20;;;1.40;96.80;;;;;;5052665;28;20123;-71
2021/01/14 00:47:08;;;;;;;5.03;0.98;;;1.30;97.10;;;;;;5052027;28;20108;-72
2021/01/14 00:49:33;;;;;;;5.85;1.20;;;1.40;96.90;;;;;;5052535;28;20391;-72
2021/01/14 00:51:59;;;;;;;5.13;1.10;;;1.40;96.80;;;;;;5052521;28;20032;-71
2021/01/14 00:54:24;;;;;;;6.68;1.42;;;1.30;96.60;;;;;;5052538;28;20082;-71
2021/01/14 00:56:50;;;;;;;9.27;2.40;;;1.20;97.60;;;;;;5051823;28;20507;-72
2021/01/14 00:59:15;;;;;;;7.13;0.95;;;1.30;96.30;;;;;;5052138;28;20044;-71
2021/01/14 01:01:41;;;;;;;6.03;0.95;;;1.40;95.90;;;;;;5052210;28;20100;-72
2021/01/14 01:04:08;;;;;;;6.35;1.02;;;1.30;96.10;;;;;;5050983;28;20383;-72
2021/01/14 01:06:35;;;;;;;5.78;1.42;;;1.20;96.40;;;;;;5051599;28;20024;-71
2021/01/14 01:09:02;;;;;;;9.30;1.00;;;1.20;96.20;;;;;;5050549;28;20021;-71
2021/01/14 01:11:28;;;;;;;4.28;0.80;;;1.30;96.80;;;;;;5050860;28;20025;-71
2021/01/14 01:13:54;;;;;;;9.68;1.40;;;1.20;96.10;;;;;;5052055;28;20024;-72
2021/01/14 01:16:20;;;;;;;5.30;1.02;;;1.30;95.40;;;;;;5051452;28;20033;-71
2021/01/14 01:18:46;;;;;;;7.53;1.30;;;1.20;96.00;;;;;;5051982;28;20033;-71
2021/01/14 01:21:12;;;;;;;7.22;1.27;;;1.20;95.80;;;;;;5052033;28;20028;-71
2021/01/14 01:23:37;;;;;;;4.28;1.10;;;1.20;95.80;;;;;;5051880;28;20055;-71
2021/01/14 01:26:03;;;;;;;8.80;0.98;;;1.10;96.00;;;;;;5050193;28;20076;-71
2021/01/14 01:28:29;;;;;;;8.98;1.15;;;1.10;96.60;;;;;;5051631;28;20096;-71
2021/01/14 01:30:55;;;;;;;7.70;0.77;;;1.10;96.20;;;;;;5051622;28;20101;-71
2021/01/14 01:33:24;;;;;;;7.30;1.00;;;1.00;96.90;;;;;;5051832;28;20025;-71
2021/01/14 01:35:50;;;;;;;8.02;1.20;;;1.20;95.80;;;;;;5051819;28;20025;-71
2021/01/14 01:38:16;;;;;;;8.52;1.15;;;1.20;96.50;;;;;;5051109;28;20104;-71
2021/01/14 01:40:42;;;;;;;8.52;1.90;;;1.20;95.70;;;;;;5050297;28;20021;-71
2021/01/14 01:43:08;;;;;;;5.20;1.30;;;1.10;96.10;;;;;;5051566;28;20549;-71
2021/01/14 01:45:34;;;;;;;8.27;1.20;;;1.20;95.60;;;;;;5051587;28;20702;-71
2021/01/14 01:48:00;;;;;;;5.28;0.90;;;1.20;95.20;;;;;;5051010;28;20025;-71
2021/01/14 01:50:26;;;;;;;5.78;1.10;;;1.30;94.90;;;;;;5050186;28;20040;-71
2021/01/14 01:52:54;;;;;;;4.57;1.00;;;1.20;95.50;;;;;;5050224;28;20396;-71
2021/01/14 01:55:20;;;;;;;9.30;1.02;;;1.20;95.30;;;;;;5051483;28;20029;-71
2021/01/14 01:57:46;;;;;;;1.75;0.80;;;1.20;95.20;;;;;;5049459;28;20028;-71
2021/01/14 02:00:12;;;;;;;8.45;0.88;;;1.20;94.70;;;;;;5051067;28;20036;-71
2021/01/14 02:02:37;;;;;;;6.85;1.55;;;1.20;94.60;;;;;;5049908;28;20100;-71
2021/01/14 02:05:03;;;;;;;6.78;1.30;;;1.30;94.00;;;;;;5051372;28;20025;-72
2021/01/14 02:08:12;;;;;;;5.03;1.00;;;1.30;94.10;;;;;;5050618;28;20507;-73
2021/01/14 02:10:55;;;;;;;8.52;2.42;;;1.20;94.70;;;;;;5051202;28;20494;-71
2021/01/14 02:13:36;;;;;;;5.70;1.30;;;1.20;95.00;;;;;;5051177;28;20040;-71
2021/01/14 02:16:04;;;;;;;7.93;1.88;;;1.20;95.10;;;;;;5050713;28;20021;-73
2021/01/14 02:18:30;;;;;;;9.43;1.25;;;1.30;94.60;;;;;;5049702;28;20029;-74
2021/01/14 02:21:00;;;;;;;1.42;0.70;;;1.30;94.40;;;;;;5049927;28;20053;-71
2021/01/14 02:23:47;;;;;;;6.13;1.42;;;1.30;93.70;;;;;;5051125;28;20484;-71
2021/01/14 02:26:20;;;;;;;4.60;1.20;;;1.30;93.10;;;;;;5049717;28;20029;-71
2021/01/14 02:28:47;;;;;;;5.30;1.40;;;1.20;94.00;;;;;;5049955;28;20021;-71
2021/01/14 02:31:13;;;;;;;5.88;1.20;;;1.20;94.00;;;;;;5051058;28;20025;-71
2021/01/14 02:33:39;;;;;;;3.45;1.15;;;1.20;93.60;;;;;;5049657;28;20392;-71
2021/01/14 02:36:05;;;;;;;2.13;0.88;;;1.20;93.70;;;;;;5050315;28;20021;-71
2021/01/14 02:38:31;;;;;;;6.93;1.52;;;1.20;93.30;;;;;;5049421;28;20087;-71
2021/01/14 02:40:57;;;;;;;7.13;0.93;;;1.10;94.10;;;;;;5049504;28;20021;-71
2021/01/14 02:43:23;;;;;;;4.85;1.40;;;1.30;93.20;;;;;;5054223;28;20032;-71
2021/01/14 02:45:48;;;;;;;3.40;1.20;;;1.20;93.70;;;;;;5053717;28;20380;-72
2021/01/14 02:48:19;;;;;;;4.90;1.13;;;1.20;93.70;;;;;;5054338;28;20021;-71
2021/01/14 02:50:47;;;;;;;9.45;1.80;;;1.20;93.80;;;;;;5054733;28;20091;-71
2021/01/14 02:53:14;;;;;;;3.83;0.90;;;1.20;93.60;;;;;;5053574;28;20616;-71
2021/01/14 02:55:40;;;;;;;7.30;1.60;;;1.20;94.20;;;;;;5054664;28;20037;-72
2021/01/14 02:58:06;;;;;;;2.95;1.02;;;1.20;94.50;;;;;;5054134;28;20573;-71
2021/01/14 03:00:33;;;;;;;3.83;1.17;;;1.20;94.20;;;;;;5053197;28;20044;-71
2021/01/14 03:02:58;;;;;;;5.55;1.38;;;1.20;94.10;;;;;;5054534;28;20029;-72
2021/01/14 03:05:24;;;;;;;8.20;1.70;;;1.10;93.60;;;;;;5054526;28;20545;-71
2021/01/14 03:07:49;;;;;;;5.53;1.60;;;1.10;93.70;;;;;;5053951;28;20032;-72
2021/01/14 03:10:15;;;;;;;3.75;1.30;;;1.10;94.00;;;;;;5053151;28;20027;-71
2021/01/14 03:12:40;;;;;;;4.55;1.52;;;1.10;93.50;;;;;;5054459;28;20094;-71
2021/01/14 03:15:07;;;;;;;3.50;1.45;;;1.10;93.90;;;;;;5053098;28;20031;-71
2021/01/14 03:17:36;;;;;;;4.05;1.40;;;1.00;93.10;;;;;;5053797;28;20051;-71
2021/01/14 03:20:05;;;;;;;5.60;1.23;;;0.90;93.70;;;;;;5052976;28;20021;-71
2021/01/14 03:22:30;;;;;;;7.68;1.52;;;1.00;92.60;;;;;;5054170;28;20398;-71
2021/01/14 03:24:56;;;;;;;5.75;1.80;;;0.90;93.00;;;;;;5054274;28;20025;-72
2021/01/14 03:27:21;;;;;;;2.63;1.45;;;0.90;93.00;;;;;;5053571;28;20071;-71
2021/01/14 03:29:47;;;;;;;3.55;1.73;;;0.80;93.10;;;;;;5052755;28;20064;-71
2021/01/14 03:32:12;;;;;;;5.75;1.90;;;0.80;93.50;;;;;;5052764;28;20021;-71
2021/01/14 03:34:38;;;;;;;3.08;1.20;;;0.80;93.70;;;;;;5054071;28;20025;-71
2021/01/14 03:37:05;;;;;;;4.22;1.42;;;0.90;93.30;;;;;;5053412;28;20025;-71
2021/01/14 03:39:31;;;;;;;11.60;1.60;;;0.80;93.30;;;;;;5050003;28;20529;-72
2021/01/14 03:41:57;;;;;;;5.93;2.35;;;0.80;93.60;;;;;;5054011;28;20025;-71
2021/01/14 03:44:23;;;;;;;7.80;1.60;;;0.80;94.00;;;;;;5052779;28;20629;-71
2021/01/14 03:46:50;;;;;;;4.30;1.52;;;0.70;94.90;;;;;;5052020;28;20055;-72
2021/01/14 03:49:17;;;;;;;5.53;1.75;;;0.70;94.50;;;;;;5053685;28;20029;-71
2021/01/14 03:51:44;;;;;;;5.35;1.83;;;0.70;95.30;;;;;;5053865;28;20491;-71
2021/01/14 03:54:10;;;;;;;6.53;1.80;;;0.70;94.50;;;;;;5052499;28;20120;-73
2021/01/14 03:56:38;;;;;;;4.85;1.73;;;0.70;94.60;;;;;;5051881;28;20025;-72
2021/01/14 03:59:04;;;;;;;10.43;2.42;;;0.70;94.70;;;;;;5052138;28;20033;-71
2021/01/14 04:01:30;;;;;;;8.40;2.00;;;0.70;95.10;;;;;;5053485;28;20029;-71
2021/01/14 04:03:56;;;;;;;7.78;2.10;;;0.80;95.20;;;;;;5053447;28;20426;-72
2021/01/14 04:06:32;;;;;;;4.50;2.30;;;0.80;95.20;;;;;;5052918;28;20025;-71
2021/01/14 04:08:58;;;;;;;4.13;2.10;;;0.70;94.70;;;;;;5052092;28;20017;-72
2021/01/14 04:11:24;;;;;;;4.60;1.80;;;0.80;95.30;;;;;;5052166;28;20027;-71
2021/01/14 04:13:49;;;;;;;6.00;1.92;;;0.70;95.20;;;;;;5052069;28;20486;-71
2021/01/14 04:16:15;;;;;;;4.07;1.48;;;0.80;95.20;;;;;;5051373;28;20016;-71
2021/01/14 04:18:40;;;;;;;5.97;2.05;;;0.70;95.30;;;;;;5051931;28;20068;-71
2021/01/14 04:21:06;;;;;;;6.47;2.28;;;0.70;95.90;;;;;;5051893;28;20025;-72
2021/01/14 04:23:31;;;;;;;7.38;2.20;;;0.70;95.60;;;;;;5052821;28;20033;-72
2021/01/14 04:25:57;;;;;;;6.05;2.10;;;0.70;96.00;;;;;;5051268;28;20494;-73
2021/01/14 04:28:22;;;;;;;9.18;2.92;;;0.80;95.70;;;;;;5050989;28;20538;-72
2021/01/14 04:30:48;;;;;;;6.97;2.40;;;0.70;95.80;;;;;;5051466;28;20431;-72
2021/01/14 04:33:14;;;;;;;4.15;1.67;;;0.70;96.20;;;;;;5051431;28;20025;-72
2021/01/14 04:35:47;;;;;;;7.15;2.30;;;0.90;95.60;;;;;;5051398;28;20029;-72
2021/01/14 04:38:13;;;;;;;6.53;2.63;;;0.80;95.90;;;;;;5051846;28;20060;-73
2021/01/14 04:40:39;;;;;;;6.43;2.35;;;0.80;96.10;;;;;;5052524;28;20384;-71
2021/01/14 04:43:06;;;;;;;7.20;2.95;;;0.80;96.20;;;;;;5052403;28;20032;-72
2021/01/14 04:45:32;;;;;;;6.57;2.55;;;0.80;96.10;;;;;;5051108;28;20479;-72
2021/01/14 04:47:58;;;;;;;4.45;1.73;;;0.70;96.50;;;;;;5050363;28;20031;-71
2021/01/14 04:50:26;;;;;;;6.10;2.00;;;0.70;96.50;;;;;;5052243;28;20088;-72
2021/01/14 04:52:54;;;;;;;7.07;2.08;;;0.80;96.40;;;;;;5050888;28;20120;-71
2021/01/14 04:55:21;;;;;;;6.93;2.88;;;0.80;96.70;;;;;;5052181;28;20032;-72
2021/01/14 04:57:50;;;;;;;4.38;1.80;;;0.80;96.70;;;;;;5051553;28;20387;-71
2021/01/14 05:00:17;;;;;;;3.28;1.23;;;0.80;96.80;;;;;;5052048;28;20040;-71
2021/01/14 05:02:57;;;;;;;6.75;1.40;;;0.80;97.00;;;;;;5052109;28;20156;-72
2021/01/14 05:05:25;;;;;;;5.82;2.10;;;0.80;96.70;;;;;;5050489;28;20101;-72
2021/01/14 05:08:05;;;;;;;3.83;1.50;;;0.80;97.20;;;;;;5051280;28;20071;-72
2021/01/14 05:10:35;;;;;;;6.03;2.40;;;0.80;97.00;;;;;;5052154;28;20044;-72
2021/01/14 05:13:01;;;;;;;7.13;2.85;;;0.70;97.50;;;;;;5047526;28;20036;-72
2021/01/14 05:15:28;;;;;;;5.85;1.75;;;0.80;97.30;;;;;;5040943;28;20128;-72
2021/01/14 05:17:57;;;;;;;4.78;2.22;;;0.90;96.90;;;;;;5042404;28;20025;-72
2021/01/14 05:20:23;;;;;;;4.10;1.92;;;0.90;97.40;;;;;;5051594;28;20024;-71
2021/01/14 05:22:51;;;;;;;4.68;2.15;;;0.90;97.10;;;;;;5051708;28;20029;-71
2021/01/14 05:25:17;;;;;;;8.43;2.25;;;0.80;97.20;;;;;;5050571;28;20119;-71
2021/01/14 05:27:42;;;;;;;6.32;2.40;;;1.00;97.30;;;;;;5051210;28;20096;-71
2021/01/14 05:30:12;;;;;;;4.93;1.95;;;0.90;97.30;;;;;;5051681;28;20032;-71
2021/01/14 05:32:43;;;;;;;5.05;2.08;;;1.00;96.90;;;;;;5050495;28;20021;-71
2021/01/14 05:35:10;;;;;;;5.80;2.38;;;1.00;97.20;;;;;;5051349;28;20041;-71
2021/01/14 05:37:42;;;;;;;5.35;2.05;;;0.90;97.40;;;;;;5049448;28;20112;-72
2021/01/14 05:40:13;;;;;;;6.97;2.47;;;0.90;97.70;;;;;;5051356;28;20025;-71
2021/01/14 05:42:40;;;;;;;9.73;3.85;;;1.00;97.50;;;;;;5051217;28;20029;-71
2021/01/14 05:45:20;;;;;;;6.03;2.72;;;1.10;97.00;;;;;;5050153;28;20092;-71
2021/01/14 05:47:46;;;;;;;3.83;1.98;;;1.00;97.60;;;;;;5049461;28;20404;-71
2021/01/14 05:50:12;;;;;;;5.15;2.00;;;1.10;97.00;;;;;;5044845;28;20028;-71
2021/01/14 05:52:39;;;;;;;4.07;2.15;;;1.10;97.20;;;;;;5051177;28;20521;-71
2021/01/14 05:55:09;;;;;;;5.63;1.80;;;1.10;97.40;;;;;;5049931;28;20124;-71
2021/01/14 05:57:38;;;;;;;7.45;2.42;;;1.10;97.50;;;;;;5050595;28;20048;-71
2021/01/14 06:00:14;;;;;;;7.40;2.43;;;1.00;97.80;;;;;;5049722;28;20036;-71
2021/01/14 06:02:41;;;;;;;5.43;2.40;;;1.00;98.30;;;;;;5049828;28;20368;-71
2021/01/14 06:05:32;;;;;;;6.38;2.40;;;1.00;97.80;;;;;;5051029;28;20032;-73
2021/01/14 06:07:59;;;;;;;9.23;3.47;;;1.10;97.50;;;;;;5050283;28;20013;-71
2021/01/14 06:10:32;;;;;;;9.00;3.92;;;1.10;97.50;;;;;;5050573;28;20028;-71
2021/01/14 06:12:57;;;;;;;8.57;2.35;;;1.10;97.70;;;;;;5050970;28;20511;-72
2021/01/14 06:15:23;;;;;;;6.70;2.55;;;1.10;97.50;;;;;;5050900;28;20036;-71
2021/01/14 06:17:49;;;;;;;7.22;3.38;;;1.00;97.70;;;;;;5048082;28;20495;-71
2021/01/14 06:20:15;;;;;;;9.75;3.10;;;1.10;98.00;;;;;;5049121;28;20040;-70
2021/01/14 06:22:44;;;;;;;5.18;1.85;;;1.10;98.10;;;;;;5047481;28;20021;-71
2021/01/14 06:25:10;;;;;;;4.68;2.17;;;1.10;97.40;;;;;;5049763;28;20029;-71
2021/01/14 06:27:37;;;;;;;6.20;3.10;;;1.10;97.70;;;;;;5048737;28;20025;-71
2021/01/14 06:30:08;;;;;;;8.90;2.45;;;1.10;97.90;;;;;;5051106;28;20609;-71
2021/01/14 06:32:35;;;;;;;7.40;2.30;;;1.10;97.80;;;;;;5049435;28;20029;-72
2021/01/14 06:35:01;;;;;;;10.30;3.13;;;1.10;97.80;;;;;;5050904;28;20047;-71
2021/01/14 06:37:27;;;;;;;6.93;2.75;;;1.00;98.30;;;;;;5050017;28;20112;-71
2021/01/14 06:39:59;;;;;;;6.72;2.97;;;1.00;98.10;;;;;;5050757;28;20492;-73
2021/01/14 06:42:29;;;;;;;11.20;3.13;;;1.00;98.30;;;;;;5050547;28;20061;-72
2021/01/14 06:45:09;;;;;;;9.15;2.85;;;1.00;98.30;;;;;;5050801;28;20025;-72
2021/01/14 06:48:00;;;;;;;4.78;2.03;;;1.00;98.30;;;;;;5050100;28;20479;-72
2021/01/14 06:50:26;;;;;;;8.15;2.50;;;1.00;98.50;;;;;;5050240;28;20029;-71
2021/01/14 06:53:09;;;;;;;10.98;2.83;;;0.90;98.70;;;;;;5049236;28;20111;-72
2021/01/14 06:55:36;;;;;;;9.93;3.20;;;0.90;98.60;;;;;;5049221;28;20021;-72
2021/01/14 06:58:14;;;;;;;6.28;1.88;;;1.00;98.50;;;;;;5043571;28;20483;-72
2021/01/14 07:00:45;;;;;;;7.97;3.00;;;1.10;98.30;;;;;;5050380;28;20044;-72
2021/01/14 07:03:14;;;;;;;10.82;3.50;;;1.00;98.70;;;;;;5050493;28;20075;-72
2021/01/14 07:05:51;;;;;;;6.80;3.22;;;1.00;98.80;;;;;;5050657;28;20045;-72
2021/01/14 07:08:42;;;;;;;6.38;3.05;;;1.00;98.80;;;;;;5050112;28;20032;-72
2021/01/14 07:11:07;;;;;;;;;;;1.00;98.90;;;;;;5051055;28;20053;-72
2021/01/14 07:13:44;;;;;;;3.80;2.08;;;1.00;99.20;;;;;;5049296;28;19955;-72
2021/01/14 07:16:16;;;;;;;6.18;2.55;;;1.00;98.90;;;;;;5048713;28;20104;-72
2021/01/14 07:18:44;;;;;;;7.68;3.35;;;1.00;99.10;;;;;;5049189;28;20036;-74
2021/01/14 07:21:24;;;;;;;7.57;2.95;;;1.00;99.30;;;;;;5050778;28;20430;-72
2021/01/14 07:23:53;;;;;;;8.35;3.08;;;1.00;99.20;;;;;;5049307;28;20025;-73
2021/01/14 07:26:21;;;;;;;8.63;3.80;;;1.00;99.60;;;;;;5048888;28;20029;-73
2021/01/14 07:28:46;;;;;;;9.23;2.78;;;1.00;99.90;;;;;;5052397;28;20021;-71
2021/01/14 07:31:26;;;;;;;9.77;4.38;;;0.90;99.90;;;;;;5051229;28;20075;-71
2021/01/14 07:33:53;;;;;;;9.07;3.65;;;0.80;99.90;;;;;;5050990;28;20558;-71
2021/01/14 07:36:24;;;;;;;9.73;5.57;;;0.80;99.90;;;;;;5051944;28;20033;-72
2021/01/14 07:39:00;;;;;;;10.13;3.60;;;0.80;99.90;;;;;;5053771;28;20055;-71
2021/01/14 07:41:25;;;;;;;13.50;4.30;;;0.70;99.90;;;;;;5053753;28;20025;-71
2021/01/14 07:43:52;;;;;;;12.95;4.85;;;0.70;99.90;;;;;;5052658;28;20083;-72
2021/01/14 07:46:24;;;;;;;13.00;5.10;;;0.70;99.90;;;;;;5051104;28;20034;-71
2021/01/14 07:48:53;;;;;;;12.27;5.18;;;0.70;99.90;;;;;;5052938;28;20021;-71
2021/01/14 07:51:20;;;;;;;8.40;4.03;;;0.70;99.90;;;;;;5052885;28;20033;-71
2021/01/14 07:54:08;;;;;;;9.40;4.53;;;0.70;99.90;;;;;;5051606;28;20035;-72
2021/01/14 07:56:52;;;;;;;13.10;5.82;;;0.70;99.90;;;;;;5051202;28;20025;-71
2021/01/14 07:59:30;;;;;;;12.88;4.97;;;0.70;99.90;;;;;;5053506;28;20517;-72
2021/01/14 08:02:01;;;;;;;10.77;4.95;;;0.70;99.90;;;;;;5053562;28;20025;-71
2021/01/14 08:04:27;;;;;;;;;;;0.80;99.90;;;;;;5053947;28;20029;-71
2021/01/14 08:06:52;;;;;;;10.88;5.15;;;0.80;99.90;;;;;;5052570;28;19931;-71
2021/01/14 08:09:19;;;;;;;8.93;4.70;;;0.80;99.90;;;;;;5052045;28;20025;-72
2021/01/14 08:11:44;;;;;;;7.63;4.10;;;0.90;99.90;;;;;;5053391;28;20024;-70
2021/01/14 08:14:23;;;;;;;16.20;5.22;;;0.90;99.90;;;;;;5052258;28;20526;-71
2021/01/14 08:16:52;;;;;;;11.75;4.90;;;0.90;99.90;;;;;;5052677;28;20075;-71
2021/01/14 08:19:30;;;;;;;9.80;4.55;;;0.80;99.90;;;;;;5051868;28;20024;-69
2021/01/14 08:21:58;;;;;;;15.50;5.47;;;0.70;99.90;;;;;;5051892;28;20029;-70
2021/01/14 08:24:33;;;;;;;12.85;4.63;;;0.70;99.90;;;;;;5053142;28;20029;-71
2021/01/14 08:27:01;;;;;;;10.55;5.15;;;0.80;99.90;;;;;;5051770;28;20476;-70
2021/01/14 08:29:50;;;;;;;14.35;6.15;;;0.80;99.90;;;;;;5051782;28;20075;-70
2021/01/14 08:32:37;;;;;;;13.18;5.78;;;0.80;99.90;;;;;;5051738;28;20029;-71
2021/01/14 08:35:23;;;;;;;8.73;4.30;;;0.90;99.90;;;;;;5051649;28;20032;-70
2021/01/14 08:37:57;;;;;;;14.60;5.40;;;0.90;99.90;;;;;;5052156;28;20122;-70
2021/01/14 08:40:23;;;;;;;13.32;5.03;;;0.90;99.90;;;;;;5051898;28;20055;-71
2021/01/14 08:42:59;;;;;;;10.68;5.97;;;1.00;99.90;;;;;;5052766;28;20384;-71
2021/01/14 08:45:28;;;;;;;7.82;3.60;;;1.00;99.90;;;;;;5052738;28;20021;-70
2021/01/14 08:48:12;;;;;;;11.48;5.15;;;1.00;99.90;;;;;;5050919;28;20120;-70
2021/01/14 08:50:46;;;;;;;13.65;5.57;;;1.00;99.90;;;;;;5052638;28;20050;-71
2021/01/14 08:53:18;;;;;;;9.63;4.97;;;1.00;99.90;;;;;;5052823;28;20052;-70
2021/01/14 08:55:44;;;;;;;6.40;2.70;;;1.00;99.90;;;;;;5052545;28;20029;-70
2021/01/14 08:58:11;;;;;;;15.88;6.75;;;1.00;99.90;;;;;;5051725;28;20067;-70
2021/01/14 09:00:37;;;;;;;11.95;5.43;;;1.00;99.90;;;;;;5050946;28;20029;-69
2021/01/14 09:03:03;;;;;;;12.40;5.03;;;1.10;99.90;;;;;;5052248;28;20589;-70
2021/01/14 09:05:29;;;;;;;8.48;4.57;;;1.20;99.90;;;;;;5052245;28;20055;-70
2021/01/14 09:08:05;;;;;;;13.25;4.43;;;1.30;99.90;;;;;;5051668;28;20096;-70
2021/01/14 09:11:01;;;;;;;10.77;5.43;;;1.30;99.90;;;;;;5052139;28;20024;-69
2021/01/14 09:13:31;;;;;;;9.40;4.57;;;1.20;99.90;;;;;;5052230;28;20079;-69
2021/01/14 09:16:05;;;;;;;10.00;5.32;;;1.30;99.90;;;;;;5050695;28;20136;-70
2021/01/14 09:18:39;;;;;;;12.40;5.50;;;1.30;99.90;;;;;;5051925;28;20043;-70
2021/01/14 09:21:05;;;;;;;10.52;5.45;;;1.40;99.90;;;;;;5051954;28;20479;-70
2021/01/14 09:23:35;;;;;;;8.90;5.30;;;1.40;99.90;;;;;;5051865;28;20036;-71
2021/01/14 09:26:11;;;;;;;14.82;5.70;;;1.40;99.90;;;;;;5050141;28;20119;-70
2021/01/14 09:28:37;;;;;;;11.15;5.25;;;1.50;99.90;;;;;;5050503;28;20032;-71
2021/01/14 09:31:04;;;;;;;10.55;5.30;;;1.50;99.90;;;;;;5050463;28;20024;-70
2021/01/14 09:33:32;;;;;;;12.07;5.20;;;1.50;99.90;;;;;;5051689;28;20025;-71
2021/01/14 09:36:07;;;;;;;11.80;4.53;;;1.60;99.90;;;;;;5050314;28;20043;-69
2021/01/14 09:38:38;;;;;;;7.72;3.53;;;1.50;99.90;;;;;;5050333;28;20028;-71
2021/01/14 09:41:04;;;;;;;10.82;5.47;;;1.50;99.90;;;;;;5050347;28;20506;-70
2021/01/14 09:43:30;;;;;;;8.95;4.53;;;1.60;99.90;;;;;;5051471;28;20057;-70
2021/01/14 09:45:57;;;;;;;11.10;4.10;;;1.70;99.90;;;;;;5050177;28;20025;-71
2021/01/14 09:48:22;;;;;;;9.23;4.82;;;1.70;99.90;;;;;;5050926;28;20570;-72
2021/01/14 09:50:50;;;;;;;8.40;4.55;;;1.80;99.90;;;;;;5050132;28;20117;-71
2021/01/14 09:53:17;;;;;;;9.13;4.28;;;1.80;99.90;;;;;;5050230;28;20031;-71
2021/01/14 09:55:43;;;;;;;7.32;3.88;;;1.80;99.90;;;;;;5051439;28;20031;-71
2021/01/14 09:58:18;;;;;;;8.93;3.92;;;1.80;99.90;;;;;;5049600;28;20036;-72
2021/01/14 10:00:50;;;;;;;9.70;4.80;;;1.90;99.90;;;;;;5051320;28;20621;-72
2021/01/14 10:03:17;;;;;;;11.10;4.40;;;1.90;99.90;;;;;;5050069;28;20693;-71
2021/01/14 10:05:47;;;;;;;13.00;4.00;;;1.90;99.90;;;;;;5051215;28;20025;-71
2021/01/14 10:08:16;;;;;;;9.07;3.80;;;2.00;99.90;;;;;;5049270;28;20025;-71
2021/01/14 10:10:42;;;;;;;7.57;3.80;;;2.00;99.90;;;;;;5051014;28;20017;-71
2021/01/14 10:13:15;;;;;;;8.73;4.32;;;2.00;99.90;;;;;;5049758;28;20044;-71
2021/01/14 10:15:42;;;;;;;9.23;4.88;;;2.00;99.90;;;;;;5049811;28;20035;-72
2021/01/14 10:18:22;;;;;;;11.10;4.30;;;2.00;99.90;;;;;;5049134;28;20087;-71
2021/01/14 10:20:47;;;;;;;9.45;4.57;;;2.00;99.90;;;;;;5049912;28;20411;-71
2021/01/14 10:23:24;;;;;;;11.02;5.35;;;2.00;99.90;;;;;;5051034;28;20036;-72
2021/01/14 10:25:49;;;;;;;7.30;3.75;;;2.00;99.90;;;;;;5050087;28;20391;-71
2021/01/14 10:28:15;;;;;;;8.48;4.20;;;2.00;99.90;;;;;;5049451;28;20017;-78
2021/01/14 10:30:41;;;;;;;8.30;4.22;;;2.20;99.90;;;;;;5051077;28;20025;-71
2021/01/14 10:33:07;;;;;;;11.57;4.63;;;2.30;99.90;;;;;;5049634;28;20033;-71
2021/01/14 10:35:34;;;;;;;8.98;4.25;;;2.30;99.90;;;;;;5049664;28;20529;-72
2021/01/14 10:38:11;;;;;;;9.70;4.25;;;2.30;99.90;;;;;;5050303;28;20570;-71
2021/01/14 10:40:51;;;;;;;10.45;4.88;;;2.40;99.70;;;;;;5050934;28;20091;-71
2021/01/14 10:43:35;;;;;;;;;;;2.30;99.90;;;;;;5050051;28;20446;-71
2021/01/14 10:46:01;;;;;;;9.50;4.40;;;2.30;99.90;;;;;;5050506;28;20289;-71
2021/01/14 10:48:37;;;;;;;9.98;4.13;;;2.30;99.90;;;;;;5049380;28;20021;-72
2021/01/14 10:51:03;;;;;;;11.05;4.80;;;2.40;99.50;;;;;;5050900;28;20099;-71
2021/01/14 10:53:40;;;;;;;12.52;4.28;;;2.60;99.20;;;;;;5050976;28;20110;-71
2021/01/14 10:56:11;;;;;;;6.50;3.25;;;2.70;99.00;;;;;;5050262;28;20048;-71
2021/01/14 10:58:40;;;;;;;10.32;4.18;;;2.80;98.60;;;;;;5049319;28;20025;-72
2021/01/14 11:01:16;;;;;;;9.68;3.95;;;2.80;98.60;;;;;;5050733;28;20036;-72
2021/01/14 11:03:42;;;;;;;10.57;4.22;;;2.90;98.40;;;;;;5051530;28;20036;-71
2021/01/14 11:06:07;;;;;;;9.68;4.18;;;3.10;98.30;;;;;;5052809;28;20025;-71
2021/01/14 11:08:42;;;;;;;6.72;2.80;;;3.30;97.40;;;;;;5054332;28;20403;-72
2021/01/14 11:11:10;;;;;;;7.50;3.95;;;3.30;97.10;;;;;;5054554;28;20078;-71
2021/01/14 11:13:49;;;;;;;7.68;3.45;;;3.30;97.40;;;;;;5054515;28;20031;-72
2021/01/14 11:16:16;;;;;;;7.32;2.92;;;3.50;96.70;;;;;;5052644;28;20593;-72
2021/01/14 11:18:44;;;;;;;8.27;3.88;;;3.60;96.00;;;;;;5048935;28;20510;-72
2021/01/14 11:21:10;;;;;;;6.65;3.20;;;3.40;96.20;;;;;;5052768;28;20036;-72
2021/01/14 11:23:37;;;;;;;9.23;4.15;;;3.40;96.60;;;;;;5049946;28;20056;-71
2021/01/14 11:26:05;;;;;;;10.48;3.30;;;3.30;96.90;;;;;;5049609;28;20028;-72
2021/01/14 11:28:32;;;;;;;9.23;3.78;;;3.30;96.60;;;;;;5039201;28;20033;-71
2021/01/14 11:30:58;;;;;;;8.05;4.20;;;3.50;96.10;;;;;;5040757;28;20018;-73
2021/01/14 11:33:24;;;;;;;8.75;3.22;;;3.40;96.20;;;;;;5042320;28;20032;-72
2021/01/14 11:35:50;;;;;;;9.30;3.60;;;3.40;96.00;;;;;;5042733;28;20382;-71
2021/01/14 11:38:15;;;;;;;13.40;4.43;;;3.20;96.60;;;;;;5032896;28;20053;-73
2021/01/14 11:40:41;;;;;;;12.35;3.95;;;3.10;97.10;;;;;;5033838;28;20496;-72
2021/01/14 11:43:06;;;;;;;8.13;3.63;;;3.20;96.60;;;;;;5033881;28;20061;-73
2021/01/14 11:45:32;;;;;;;11.48;3.60;;;3.20;97.10;;;;;;5032384;28;20071;-72
2021/01/14 11:47:57;;;;;;;8.10;3.80;;;3.20;96.80;;;;;;5031913;28;20070;-73
2021/01/14 11:50:23;;;;;;;8.07;3.95;;;3.30;96.80;;;;;;5033784;28;20096;-73
2021/01/14 11:52:49;;;;;;;9.18;3.80;;;3.30;96.80;;;;;;5036087;28;20025;-74
2021/01/14 11:55:15;;;;;;;11.20;4.18;;;3.40;96.80;;;;;;5053716;28;20100;-74
2021/01/14 11:57:41;;;;;;;11.85;3.38;;;3.60;96.30;;;;;;5051837;28;20159;-74
2021/01/14 12:00:08;;;;;;;9.32;3.30;;;3.70;95.60;;;;;;5050750;28;20029;-73
2021/01/14 12:02:34;;;;;;;15.15;5.32;;;3.90;95.10;;;;;;5051921;28;20036;-73
2021/01/14 12:04:59;;;;;;;7.70;3.50;;;4.00;95.50;;;;;;5052255;28;20021;-74
2021/01/14 12:07:25;;;;;;;8.35;3.65;;;4.00;95.00;;;;;;5051624;28;20396;-74
2021/01/14 12:09:50;;;;;;;8.68;4.25;;;3.90;95.00;;;;;;5053552;28;20475;-73
2021/01/14 12:12:16;;;;;;;8.50;3.72;;;3.90;95.60;;;;;;5052240;28;20028;-75
2021/01/14 12:14:41;;;;;;;7.75;3.30;;;4.00;95.80;;;;;;5050748;28;20025;-75
2021/01/14 12:17:07;;;;;;;8.88;3.72;;;4.10;95.00;;;;;;5051425;28;20540;-74
2021/01/14 12:19:33;;;;;;;8.43;4.10;;;4.10;94.90;;;;;;5051966;28;20104;-74
2021/01/14 12:22:03;;;;;;;9.63;4.47;;;4.10;95.10;;;;;;5052099;28;20400;-75
2021/01/14 12:24:29;;;;;;;10.73;4.55;;;4.10;94.80;;;;;;5042066;28;20079;-74
2021/01/14 12:26:55;;;;;;;9.88;4.15;;;4.00;94.60;;;;;;5051366;28;20029;-72
2021/01/14 12:29:20;;;;;;;9.63;4.28;;;4.10;94.80;;;;;;5052005;28;20067;-75
2021/01/14 12:31:46;;;;;;;10.07;3.97;;;3.90;95.00;;;;;;5052156;28;20028;-75
2021/01/14 12:34:11;;;;;;;10.40;4.40;;;3.60;95.20;;;;;;5053277;28;20055;-75
2021/01/14 12:36:37;;;;;;;8.80;3.97;;;3.70;95.40;;;;;;5052664;28;20440;-72
2021/01/14 12:39:03;;;;;;;9.48;4.35;;;3.70;95.40;;;;;;5051938;28;20522;-75
2021/01/14 12:41:33;;;;;;;11.55;4.28;;;3.80;94.80;;;;;;5051851;28;20128;-75
2021/01/14 12:43:59;;;;;;;8.50;3.88;;;3.80;95.40;;;;;;5053473;28;20028;-74
2021/01/14 12:46:38;;;;;;;16.30;7.10;;;3.60;95.10;;;;;;5051104;28;20479;-75
2021/01/14 12:49:05;;;;;;;11.75;4.50;;;3.70;95.70;;;;;;5051532;28;20053;-73
2021/01/14 12:51:30;;;;;;;13.75;7.25;;;3.70;95.80;;;;;;5051124;28;20021;-74
2021/01/14 12:53:56;;;;;;;8.45;4.22;;;3.60;96.10;;;;;;5052677;28;20479;-75
2021/01/14 12:56:21;;;;;;;9.05;3.78;;;3.80;96.00;;;;;;5050730;28;20113;-73
2021/01/14 12:58:47;;;;;;;8.77;3.65;;;3.70;95.40;;;;;;5052449;28;20599;-75
2021/01/14 13:01:12;;;;;;;7.80;3.47;;;3.70;95.60;;;;;;5052527;28;20029;-74
2021/01/14 13:03:38;;;;;;;8.63;3.47;;;3.90;94.70;;;;;;5051289;28;20041;-75
2021/01/14 13:06:03;;;;;;;9.82;4.05;;;3.90;95.10;;;;;;5051722;28;20383;-75